Time;durP1;ratioP1;P1;durP2;ratioP2;P2;SDS_P1;SDS_P2;PMS_P1;PMS_P2;Temp;Humidity;BMP_temperature;BMP_pressure;BME280_temperature;BME280_humidity;BME280_pressure;Samples;Min_cycle;Max_cycle;Signal;HPM_P1;HPM_P2
2022/04/02 00:01:54;;;;;;;15.75;13.23;;;13.60;99.90;;;;;;5071388;28;20025;-47
2022/04/02 00:04:21;;;;;;;16.40;14.02;;;13.70;99.90;;;;;;5071347;28;20032;-48
2022/04/02 00:06:47;;;;;;;22.77;16.30;;;13.60;99.90;;;;;;5037464;28;20028;-47
2022/04/02 00:09:13;;;;;;;19.08;15.25;;;13.70;99.90;;;;;;5071336;28;20032;-48
2022/04/02 00:11:39;;;;;;;20.20;15.90;;;;;;;;;;5071247;28;20777;-46
2022/04/02 00:14:05;;;;;;;20.48;15.30;;;13.80;99.90;;;;;;5037921;28;20045;-47
2022/04/02 00:16:31;;;;;;;19.20;15.45;;;13.50;99.90;;;;;;5037978;28;20472;-48
2022/04/02 00:18:56;;;;;;;16.50;13.93;;;13.50;99.90;;;;;;5004745;28;20040;-48
2022/04/02 00:21:23;;;;;;;14.18;11.85;;;;;;;;;;5070578;28;20028;-46
2022/04/02 00:23:48;;;;;;;15.32;12.02;;;13.20;99.90;;;;;;5021230;28;20111;-48
2022/04/02 00:26:22;;;;;;;13.30;11.90;;;13.20;99.90;;;;;;5056945;28;20064;-47
2022/04/02 00:28:49;;;;;;;15.25;12.32;;;13.00;99.90;;;;;;5053212;28;20473;-46
2022/04/02 00:31:16;;;;;;;14.95;12.10;;;13.00;99.90;;;;;;5053280;28;20481;-47
2022/04/02 00:33:44;;;;;;;16.80;13.45;;;13.20;99.90;;;;;;5053349;28;20055;-48
2022/04/02 00:36:11;;;;;;;15.38;13.60;;;13.30;99.90;;;;;;5053069;28;20116;-48
2022/04/02 00:38:39;;;;;;;16.27;13.05;;;13.40;99.90;;;;;;5052959;28;20080;-46
2022/04/02 00:41:06;;;;;;;14.77;12.38;;;13.30;99.90;;;;;;5053288;28;20043;-48
2022/04/02 00:43:42;;;;;;;14.35;12.07;;;13.10;99.90;;;;;;5053290;28;20037;-45
2022/04/02 00:46:12;;;;;;;16.50;13.98;;;13.00;99.90;;;;;;5067861;28;20075;-48
2022/04/02 00:48:39;;;;;;;16.30;13.02;;;13.00;99.90;;;;;;5056623;28;20063;-48
2022/04/02 00:51:07;;;;;;;15.50;13.10;;;13.00;99.90;;;;;;5060463;28;20396;-47
2022/04/02 00:53:38;;;;;;;16.15;12.95;;;13.10;99.90;;;;;;5072883;28;20029;-48
2022/04/02 00:56:05;;;;;;;16.65;13.63;;;13.30;99.90;;;;;;5073284;28;20090;-49
2022/04/02 00:58:31;;;;;;;18.98;14.45;;;13.20;99.90;;;;;;5072746;28;20086;-47
2022/04/02 01:00:57;;;;;;;16.30;14.50;;;13.10;99.90;;;;;;5071871;28;20431;-49
2022/04/02 01:03:23;;;;;;;17.25;13.85;;;13.10;99.90;;;;;;5073142;28;20052;-46
2022/04/02 01:05:50;;;;;;;19.05;15.45;;;13.00;99.90;;;;;;5053993;28;20033;-46
2022/04/02 01:08:16;;;;;;;17.48;14.57;;;12.90;99.90;;;;;;5072863;28;20032;-46
2022/04/02 01:10:42;;;;;;;17.92;15.05;;;13.20;99.90;;;;;;5072748;28;20020;-46
2022/04/02 01:13:09;;;;;;;17.02;14.65;;;13.20;99.90;;;;;;5037821;28;20450;-46
2022/04/02 01:15:36;;;;;;;18.73;13.93;;;13.10;99.90;;;;;;5072744;28;20025;-47
2022/04/02 01:18:03;;;;;;;16.90;13.27;;;13.10;99.90;;;;;;5074742;28;20036;-47
2022/04/02 01:20:30;;;;;;;16.65;13.18;;;13.00;99.90;;;;;;5076663;28;20111;-46
2022/04/02 01:22:56;;;;;;;18.00;14.00;;;12.80;99.90;;;;;;5075442;28;20060;-46
2022/04/02 01:25:23;;;;;;;19.70;15.13;;;12.60;99.90;;;;;;5076787;28;20029;-46
2022/04/02 01:27:49;;;;;;;20.35;16.27;;;12.60;99.90;;;;;;5076380;28;20037;-47
2022/04/02 01:30:15;;;;;;;17.95;15.52;;;12.60;99.90;;;;;;5075503;28;20070;-46
2022/04/02 01:32:42;;;;;;;20.77;16.63;;;12.60;99.90;;;;;;5076364;28;20033;-46
2022/04/02 01:35:08;;;;;;;22.25;18.90;;;12.90;99.90;;;;;;5076286;28;20024;-45
2022/04/02 01:37:36;;;;;;;21.08;17.83;;;13.00;99.90;;;;;;5076062;28;20028;-46
2022/04/02 01:40:04;;;;;;;22.70;19.30;;;12.80;99.90;;;;;;5076321;28;20102;-48
2022/04/02 01:42:30;;;;;;;23.25;18.80;;;12.90;99.90;;;;;;5076526;28;20035;-47
2022/04/02 01:44:56;;;;;;;24.15;19.50;;;12.60;99.90;;;;;;5076519;28;20037;-45
2022/04/02 01:47:22;;;;;;;22.80;16.70;;;12.30;99.90;;;;;;5091813;28;20090;-48
2022/04/02 01:49:48;;;;;;;19.60;15.88;;;11.80;99.90;;;;;;5040721;28;20032;-48
2022/04/02 01:52:20;;;;;;;24.35;19.23;;;;;;;;;;5041028;28;20174;-49
2022/04/02 01:54:47;;;;;;;23.80;19.75;;;11.50;99.90;;;;;;5075943;28;20032;-46
2022/04/02 01:57:13;;;;;;;23.63;19.60;;;11.50;99.90;;;;;;5091009;28;20120;-46
2022/04/02 01:59:40;;;;;;;22.60;18.88;;;11.70;99.90;;;;;;5075753;28;20033;-48
2022/04/02 02:02:07;;;;;;;19.33;15.88;;;11.70;99.90;;;;;;5076080;28;20029;-49
2022/04/02 02:04:36;;;;;;;19.25;16.73;;;11.40;99.90;;;;;;5075988;28;20366;-48
2022/04/02 02:07:03;;;;;;;20.25;16.58;;;11.50;99.90;;;;;;5073874;28;20105;-45
2022/04/02 02:09:29;;;;;;;21.63;17.17;;;11.60;99.90;;;;;;5073899;28;20028;-46
2022/04/02 02:11:56;;;;;;;23.15;19.85;;;11.50;99.90;;;;;;5075591;28;20060;-48
2022/04/02 02:14:22;;;;;;;24.23;19.67;;;11.50;99.90;;;;;;5075512;28;20388;-49
2022/04/02 02:16:48;;;;;;;21.70;17.80;;;11.70;99.90;;;;;;5072706;28;20472;-50
2022/04/02 02:19:14;;;;;;;23.75;19.15;;;11.80;99.90;;;;;;5075092;28;20028;-49
2022/04/02 02:21:40;;;;;;;21.38;17.85;;;11.90;99.90;;;;;;5073208;28;20035;-48
2022/04/02 02:24:06;;;;;;;22.58;18.38;;;12.10;99.90;;;;;;5075614;28;20033;-47
2022/04/02 02:26:32;;;;;;;20.88;18.67;;;12.20;99.90;;;;;;5073512;28;20040;-50
2022/04/02 02:28:58;;;;;;;20.40;17.45;;;12.00;99.90;;;;;;5074632;28;20103;-48
2022/04/02 02:31:24;;;;;;;21.27;17.88;;;11.70;99.90;;;;;;5073424;28;20441;-49
2022/04/02 02:36:34;;;;;;;24.85;18.80;;;11.40;99.90;;;;;;5075483;28;20117;-50
2022/04/02 02:39:00;;;;;;;22.10;18.75;;;11.40;99.90;;;;;;5075027;28;20075;-50
2022/04/02 02:41:26;;;;;;;21.27;18.17;;;11.20;99.90;;;;;;5075441;28;20027;-50
2022/04/02 02:43:52;;;;;;;22.00;17.80;;;;;;;;;;5074951;28;20025;-48
2022/04/02 02:46:18;;;;;;;25.02;20.17;;;11.00;99.90;;;;;;5055260;28;20124;-49
2022/04/02 02:48:46;;;;;;;23.77;19.50;;;10.90;99.90;;;;;;5055222;28;20366;-50
2022/04/02 02:51:11;;;;;;;22.17;18.67;;;10.90;99.90;;;;;;5067882;28;20032;-48
2022/04/02 02:53:37;;;;;;;22.48;18.95;;;11.00;99.90;;;;;;5074824;28;20538;-48
2022/04/02 02:56:03;;;;;;;25.67;21.08;;;10.60;99.90;;;;;;5075096;28;20028;-50
2022/04/02 02:58:29;;;;;;;23.40;19.60;;;10.80;99.90;;;;;;5072806;28;20049;-49
2022/04/02 03:00:55;;;;;;;23.83;18.90;;;10.70;99.90;;;;;;5074583;28;20392;-49
2022/04/02 03:03:22;;;;;;;23.30;19.42;;;10.70;99.90;;;;;;5075034;28;20024;-49
2022/04/02 03:05:48;;;;;;;23.58;19.65;;;10.60;99.90;;;;;;5074775;28;20039;-49
2022/04/02 03:08:16;;;;;;;23.67;20.45;;;10.50;99.90;;;;;;5074593;28;20028;-47
2022/04/02 03:10:42;;;;;;;23.65;18.27;;;10.40;99.90;;;;;;5074398;28;20028;-48
2022/04/02 03:13:08;;;;;;;22.88;19.10;;;10.50;99.90;;;;;;5072668;28;20107;-49
2022/04/02 03:15:34;;;;;;;24.80;18.33;;;10.50;99.90;;;;;;5089558;28;20064;-49
2022/04/02 03:18:04;;;;;;;24.20;20.42;;;10.50;99.90;;;;;;5074075;28;20021;-48
2022/04/02 03:20:30;;;;;;;24.20;19.55;;;10.40;99.90;;;;;;5074519;28;20365;-47
2022/04/02 03:22:56;;;;;;;26.17;20.10;;;10.40;99.90;;;;;;5073920;28;20052;-48
2022/04/02 03:25:22;;;;;;;25.52;20.42;;;10.50;99.90;;;;;;5074226;28;20022;-49
2022/04/02 03:27:48;;;;;;;23.02;19.08;;;10.60;99.90;;;;;;5072378;28;20036;-49
2022/04/02 03:30:23;;;;;;;23.92;20.80;;;10.60;99.90;;;;;;5089212;28;20131;-48
2022/04/02 03:32:49;;;;;;;23.67;19.77;;;10.60;99.90;;;;;;5074046;28;20025;-46
2022/04/02 03:35:16;;;;;;;58.10;43.85;;;10.50;99.90;;;;;;5072759;28;20494;-49
2022/04/02 03:37:44;;;;;;;24.52;20.15;;;10.50;99.90;;;;;;5073944;28;20071;-46
2022/04/02 03:40:15;;;;;;;23.83;19.17;;;10.70;99.90;;;;;;5073594;28;20384;-50
2022/04/02 03:42:45;;;;;;;25.25;21.33;;;10.60;99.90;;;;;;5073411;28;20021;-48
2022/04/02 03:45:15;;;;;;;25.48;21.30;;;10.50;99.90;;;;;;5074232;28;20379;-48
2022/04/02 03:47:41;;;;;;;25.90;21.45;;;10.50;99.90;;;;;;5074037;28;20052;-47
2022/04/02 03:50:07;;;;;;;24.83;19.88;;;10.50;99.90;;;;;;5073656;28;20024;-47
2022/04/02 03:52:33;;;;;;;29.38;20.10;;;10.50;99.90;;;;;;5071854;28;20028;-46
2022/04/02 03:54:59;;;;;;;25.02;19.73;;;10.40;99.90;;;;;;5038180;28;20613;-49
2022/04/02 03:57:25;;;;;;;23.63;20.13;;;10.40;99.90;;;;;;5073208;28;20135;-46
2022/04/02 03:59:51;;;;;;;24.98;20.25;;;10.50;99.90;;;;;;5072017;28;20063;-48
2022/04/02 04:02:17;;;;;;;24.83;20.98;;;10.50;99.90;;;;;;5073508;28;20506;-48
2022/04/02 04:04:43;;;;;;;24.05;20.35;;;10.50;99.90;;;;;;5088830;28;20035;-47
2022/04/02 04:07:09;;;;;;;23.63;19.45;;;10.50;99.90;;;;;;5073433;28;20033;-47
2022/04/02 04:09:36;;;;;;;23.20;20.55;;;10.50;99.90;;;;;;5071582;28;20056;-47
2022/04/02 04:12:02;;;;;;;25.52;21.30;;;10.60;99.90;;;;;;5073829;28;20020;-47
2022/04/02 04:14:28;;;;;;;34.90;23.38;;;10.60;99.90;;;;;;5071464;28;20039;-47
2022/04/02 04:16:54;;;;;;;27.27;22.73;;;10.60;99.90;;;;;;5073539;28;20086;-46
2022/04/02 04:19:21;;;;;;;21.02;18.35;;;10.60;99.90;;;;;;5073299;28;20124;-47
2022/04/02 04:21:47;;;;;;;27.83;21.00;;;10.70;99.90;;;;;;5073157;28;20060;-47
2022/04/02 04:24:14;;;;;;;22.70;19.20;;;10.70;99.90;;;;;;5073253;28;20029;-47
2022/04/02 04:26:41;;;;;;;25.13;21.42;;;10.80;99.90;;;;;;5088565;28;20033;-46
2022/04/02 04:29:07;;;;;;;26.85;20.10;;;10.50;99.90;;;;;;5073298;28;20506;-47
2022/04/02 04:31:34;;;;;;;23.38;18.63;;;10.50;99.90;;;;;;5071472;28;20492;-47
2022/04/02 04:34:00;;;;;;;25.65;19.60;;;10.40;99.90;;;;;;5069845;28;20480;-47
2022/04/02 04:36:26;;;;;;;24.98;19.50;;;10.20;99.90;;;;;;5073364;28;20103;-46
2022/04/02 04:38:51;;;;;;;19.67;15.50;;;10.10;99.90;;;;;;5054409;28;20146;-48
2022/04/02 04:41:18;;;;;;;30.13;23.65;;;10.00;99.90;;;;;;5088123;28;20459;-47
2022/04/02 04:43:48;;;;;;;25.45;21.45;;;10.10;99.90;;;;;;5072255;28;20099;-48
2022/04/02 04:46:14;;;;;;;77.70;57.45;;;10.10;99.90;;;;;;5073447;28;20032;-49
2022/04/02 04:48:41;;;;;;;28.58;23.75;;;10.00;99.90;;;;;;5073150;28;20025;-48
2022/04/02 04:51:08;;;;;;;30.27;24.80;;;10.10;99.90;;;;;;5072943;28;20064;-46
2022/04/02 04:53:34;;;;;;;29.00;23.15;;;10.20;99.90;;;;;;5076290;28;20027;-49
2022/04/02 04:56:00;;;;;;;29.33;23.83;;;10.10;99.90;;;;;;5077049;28;20025;-47
2022/04/02 04:58:27;;;;;;;29.80;25.05;;;10.10;99.90;;;;;;5073938;28;20040;-49
2022/04/02 05:00:55;;;;;;;28.65;22.60;;;10.10;99.90;;;;;;5074773;28;20154;-47
2022/04/02 05:03:22;;;;;;;34.10;26.02;;;10.00;99.90;;;;;;5076637;28;20032;-47
2022/04/02 05:05:48;;;;;;;29.60;23.23;;;10.00;99.90;;;;;;5075920;28;20035;-48
2022/04/02 05:08:14;;;;;;;26.95;20.77;;;10.00;99.90;;;;;;5077343;28;20052;-47
2022/04/02 05:10:43;;;;;;;27.63;22.30;;;10.20;99.90;;;;;;5072935;28;20040;-49
2022/04/02 05:13:12;;;;;;;27.85;23.77;;;10.20;99.90;;;;;;5056663;28;20087;-48
2022/04/02 05:15:40;;;;;;;26.15;22.42;;;10.40;99.90;;;;;;5056627;28;20028;-46
2022/04/02 05:18:06;;;;;;;34.83;24.63;;;10.40;99.90;;;;;;5074642;28;20043;-49
2022/04/02 05:20:31;;;;;;;27.50;23.50;;;10.20;99.90;;;;;;5076402;28;20025;-49
2022/04/02 05:22:57;;;;;;;27.90;22.92;;;10.30;99.90;;;;;;5074266;28;20064;-49
2022/04/02 05:25:23;;;;;;;27.63;21.48;;;10.60;99.90;;;;;;5075451;28;20028;-48
2022/04/02 05:27:49;;;;;;;25.67;21.60;;;10.80;99.90;;;;;;5069387;28;20036;-48
2022/04/02 05:30:16;;;;;;;25.20;22.40;;;10.80;99.90;;;;;;5073259;28;20105;-46
2022/04/02 05:32:42;;;;;;;22.63;20.15;;;10.90;99.90;;;;;;5076306;28;20391;-46
2022/04/02 05:35:08;;;;;;;24.17;21.58;;;10.70;99.90;;;;;;5091667;28;20040;-46
2022/04/02 05:37:34;;;;;;;24.98;21.67;;;10.50;99.90;;;;;;5076120;28;20070;-48
2022/04/02 05:39:59;;;;;;;23.45;20.63;;;10.50;99.90;;;;;;5076341;28;20024;-48
2022/04/02 05:42:26;;;;;;;22.80;19.30;;;10.50;99.90;;;;;;5060047;28;20465;-46
2022/04/02 05:44:53;;;;;;;24.23;18.92;;;10.20;99.90;;;;;;5074018;28;20067;-49
2022/04/02 05:47:20;;;;;;;23.67;21.17;;;10.30;99.90;;;;;;5073238;28;20040;-48
2022/04/02 05:49:47;;;;;;;24.27;21.17;;;10.30;99.90;;;;;;5076025;28;20024;-47
2022/04/02 05:52:13;;;;;;;22.23;19.67;;;10.40;99.90;;;;;;5076243;28;20044;-49
2022/04/02 05:54:39;;;;;;;22.10;19.70;;;10.50;99.90;;;;;;5075304;28;20029;-47
2022/04/02 05:57:05;;;;;;;23.05;19.60;;;10.40;99.90;;;;;;5055746;28;20389;-48
2022/04/02 05:59:32;;;;;;;24.80;20.88;;;10.50;99.90;;;;;;5051181;28;20083;-46
2022/04/02 06:01:58;;;;;;;22.77;18.65;;;10.40;99.90;;;;;;5079198;28;20047;-49
2022/04/02 06:04:25;;;;;;;22.75;19.27;;;10.30;99.90;;;;;;5069482;28;20032;-47
2022/04/02 06:06:51;;;;;;;21.55;18.08;;;10.50;99.90;;;;;;5060727;28;20028;-46
2022/04/02 06:09:17;;;;;;;22.52;20.17;;;10.50;99.90;;;;;;5061060;28;20036;-48
2022/04/02 06:11:42;;;;;;;25.85;18.63;;;10.30;99.90;;;;;;5060208;28;20028;-48
2022/04/02 06:14:10;;;;;;;20.77;18.05;;;10.10;99.90;;;;;;5074150;28;20033;-51
2022/04/02 06:16:35;;;;;;;25.52;20.60;;;10.00;99.90;;;;;;5072073;28;20044;-49
2022/04/02 06:19:02;;;;;;;24.98;18.83;;;10.20;99.90;;;;;;5072500;28;20176;-47
2022/04/02 06:21:28;;;;;;;25.45;19.52;;;10.10;99.90;;;;;;5075297;28;20032;-47
2022/04/02 06:23:54;;;;;;;24.85;21.25;;;10.20;99.90;;;;;;5074938;28;20448;-47
2022/04/02 06:26:19;;;;;;;25.25;21.52;;;10.60;99.90;;;;;;5075407;28;20115;-47
2022/04/02 06:28:45;;;;;;;26.98;22.23;;;10.70;99.90;;;;;;5065018;28;20028;-47
2022/04/02 06:31:12;;;;;;;27.88;22.98;;;10.70;99.90;;;;;;5066555;28;20024;-48
2022/04/02 06:33:38;;;;;;;63.10;48.40;;;10.60;99.90;;;;;;5062117;28;20033;-47
2022/04/02 06:36:04;;;;;;;27.58;23.33;;;10.40;99.90;;;;;;5067411;28;20357;-47
2022/04/02 06:38:30;;;;;;;64.65;51.95;;;10.30;99.90;;;;;;5061254;28;20511;-47
2022/04/02 06:40:56;;;;;;;32.28;25.13;;;10.10;99.90;;;;;;5071485;28;20028;-48
2022/04/02 06:43:22;;;;;;;32.72;23.65;;;10.10;99.90;;;;;;5071053;28;20056;-48
2022/04/02 06:45:48;;;;;;;30.60;24.65;;;10.40;99.90;;;;;;5072712;28;20113;-48
2022/04/02 06:48:13;;;;;;;35.88;26.50;;;10.60;99.90;;;;;;5072656;28;20107;-47
2022/04/02 06:50:40;;;;;;;28.90;24.17;;;10.50;99.90;;;;;;5073692;28;20021;-48
2022/04/02 06:53:06;;;;;;;29.58;24.85;;;10.40;99.90;;;;;;5073822;28;20032;-47
2022/04/02 06:55:32;;;;;;;28.55;22.80;;;10.30;99.90;;;;;;5070838;28;20368;-47
2022/04/02 06:57:59;;;;;;;75.72;61.28;;;10.20;99.90;;;;;;5089161;28;20047;-48
2022/04/02 07:00:25;;;;;;;26.80;21.58;;;10.10;99.90;;;;;;5074591;28;20020;-47
2022/04/02 07:02:51;;;;;;;27.88;22.38;;;;;;;;;;5071776;28;20368;-47
2022/04/02 07:05:20;;;;;;;34.25;24.08;;;9.80;99.90;;;;;;5074123;28;20104;-46
2022/04/02 07:07:47;;;;;;;27.52;21.75;;;9.90;99.90;;;;;;5074074;28;20373;-46
2022/04/02 07:10:13;;;;;;;36.85;24.77;;;9.80;99.90;;;;;;5044108;28;20053;-47
2022/04/02 07:12:40;;;;;;;29.40;21.77;;;10.00;99.90;;;;;;5032396;28;20037;-47
2022/04/02 07:15:07;;;;;;;30.35;22.40;;;9.90;99.90;;;;;;5032231;28;20038;-47
2022/04/02 07:17:34;;;;;;;36.00;22.10;;;9.90;99.90;;;;;;5032227;28;20582;-47
2022/04/02 07:20:00;;;;;;;55.70;36.50;;;10.10;99.90;;;;;;5032147;28;20124;-46
2022/04/02 07:22:27;;;;;;;28.05;19.15;;;9.90;99.90;;;;;;5032106;28;20174;-46
2022/04/02 07:24:55;;;;;;;28.33;22.23;;;9.80;99.90;;;;;;5032111;28;20033;-47
2022/04/02 07:27:24;;;;;;;26.48;20.73;;;9.70;99.90;;;;;;5015834;28;20512;-47
2022/04/02 07:29:52;;;;;;;27.90;22.67;;;10.00;99.90;;;;;;5032081;28;20087;-47
2022/04/02 07:32:20;;;;;;;275.63;243.02;;;10.00;99.90;;;;;;4998992;28;20056;-47
2022/04/02 07:34:46;;;;;;;45.53;31.23;;;10.30;99.90;;;;;;5039139;28;20021;-47
2022/04/02 07:37:17;;;;;;;98.63;84.22;;;10.60;99.90;;;;;;5014665;28;20130;-47
2022/04/02 07:39:50;;;;;;;24.58;19.13;;;10.80;99.90;;;;;;5048062;28;20065;-47
2022/04/02 07:42:22;;;;;;;27.13;20.08;;;11.10;99.90;;;;;;5070967;28;20115;-47
2022/04/02 07:45:07;;;;;;;20.23;17.45;;;11.20;99.90;;;;;;5071944;28;20020;-47
2022/04/02 07:47:41;;;;;;;23.90;19.27;;;11.00;99.90;;;;;;5034971;28;20033;-47
2022/04/02 07:50:11;;;;;;;22.27;17.60;;;11.10;99.90;;;;;;5067946;28;20032;-47
2022/04/02 07:52:38;;;;;;;21.38;17.58;;;11.20;99.90;;;;;;5063878;28;20033;-47
2022/04/02 07:55:08;;;;;;;30.60;21.02;;;11.10;99.90;;;;;;5067474;28;20036;-47
2022/04/02 07:57:38;;;;;;;26.45;21.60;;;11.30;99.90;;;;;;5036884;28;20039;-47
2022/04/02 08:00:05;;;;;;;22.88;18.55;;;11.20;99.90;;;;;;5067223;28;20020;-47
2022/04/02 08:02:37;;;;;;;27.42;20.77;;;11.10;99.90;;;;;;5037197;28;20028;-47
2022/04/02 08:05:07;;;;;;;25.25;20.45;;;11.20;99.90;;;;;;5070865;28;20040;-49
2022/04/02 08:07:35;;;;;;;26.25;20.80;;;11.30;99.90;;;;;;5035187;28;20098;-47
2022/04/02 08:10:05;;;;;;;27.40;20.70;;;11.60;99.90;;;;;;5083318;28;20029;-46
2022/04/02 08:12:34;;;;;;;29.77;23.33;;;11.80;99.90;;;;;;5072616;28;20046;-46
2022/04/02 08:15:03;;;;;;;29.45;24.58;;;11.80;99.90;;;;;;5069833;28;20532;-48
2022/04/02 08:17:30;;;;;;;28.17;22.83;;;12.00;99.90;;;;;;5068000;28;20059;-47
2022/04/02 08:19:58;;;;;;;46.53;35.13;;;12.10;99.90;;;;;;5071083;28;20064;-48
2022/04/02 08:22:24;;;;;;;48.40;34.25;;;12.20;99.90;;;;;;5065877;28;20102;-47
2022/04/02 08:24:50;;;;;;;416.48;258.58;;;12.20;99.90;;;;;;5065909;28;20504;-48
2022/04/02 08:27:22;;;;;;;278.35;120.45;;;12.00;99.90;;;;;;5064604;28;20046;-48
2022/04/02 08:30:03;;;;;;;45.50;29.30;;;11.70;99.90;;;;;;5069541;28;20052;-47
2022/04/02 08:32:53;;;;;;;37.10;27.38;;;11.70;99.90;;;;;;5064852;28;20079;-47
2022/04/02 08:35:26;;;;;;;36.95;26.58;;;11.80;99.90;;;;;;5067496;28;20036;-47
2022/04/02 08:38:36;;;;;;;34.63;26.75;;;11.70;99.90;;;;;;5068957;28;20056;-47
2022/04/02 08:41:22;;;;;;;211.50;94.70;;;11.80;99.90;;;;;;5017877;28;20153;-48
2022/04/02 08:44:08;;;;;;;57.33;38.22;;;11.50;99.90;;;;;;5011016;28;20037;-48
2022/04/02 08:47:01;;;;;;;34.83;29.58;;;11.60;99.90;;;;;;5011192;28;20052;-48
2022/04/02 08:49:35;;;;;;;32.92;26.88;;;11.60;99.90;;;;;;4951502;29;20047;-49
2022/04/02 08:52:22;;;;;;;34.63;27.90;;;11.30;99.90;;;;;;4948878;28;20051;-47
2022/04/02 08:55:10;;;;;;;33.00;25.58;;;11.50;99.90;;;;;;4966786;28;20538;-47
2022/04/02 08:57:52;;;;;;;30.55;24.67;;;11.40;99.90;;;;;;4970344;28;20122;-48
2022/04/02 09:00:24;;;;;;;34.38;26.92;;;11.40;99.90;;;;;;4969942;28;20163;-49
2022/04/02 09:03:27;;;;;;;32.78;26.33;;;11.30;99.90;;;;;;4971405;28;20046;-48
2022/04/02 09:06:14;;;;;;;33.28;27.77;;;11.30;99.90;;;;;;4971916;28;20062;-47
2022/04/02 09:09:26;;;;;;;30.23;25.42;;;11.20;99.90;;;;;;4971774;28;20054;-47
2022/04/02 09:12:10;;;;;;;38.13;28.38;;;11.10;99.90;;;;;;4971950;28;20043;-46
2022/04/02 09:14:54;;;;;;;30.52;25.15;;;11.00;99.90;;;;;;4971874;28;20136;-48
2022/04/02 09:17:33;;;;;;;29.25;24.48;;;11.10;99.90;;;;;;4971825;28;20435;-48
2022/04/02 09:20:17;;;;;;;25.90;23.05;;;11.40;99.90;;;;;;4970887;28;20047;-47
2022/04/02 09:23:05;;;;;;;31.98;24.75;;;11.30;99.90;;;;;;4970357;28;20051;-47
2022/04/02 09:26:07;;;;;;;30.80;25.58;;;11.30;99.90;;;;;;4984942;28;20513;-47
2022/04/02 09:29:06;;;;;;;33.63;26.08;;;11.10;99.90;;;;;;5048961;28;20037;-48
2022/04/02 09:31:50;;;;;;;33.40;25.73;;;11.50;99.90;;;;;;5049057;28;20113;-47
2022/04/02 09:34:46;;;;;;;31.80;26.88;;;11.60;99.90;;;;;;5049368;28;20439;-47
2022/04/02 09:37:30;;;;;;;32.65;27.17;;;11.80;99.90;;;;;;5049076;28;20055;-47
2022/04/02 09:40:09;;;;;;;34.83;28.38;;;11.80;99.90;;;;;;5052540;28;20392;-47
2022/04/02 09:42:42;;;;;;;35.35;27.73;;;11.80;99.90;;;;;;5052565;28;20080;-47
2022/04/02 09:45:14;;;;;;;37.20;26.27;;;11.90;99.90;;;;;;5052649;28;20102;-46
2022/04/02 09:47:54;;;;;;;32.97;24.30;;;11.60;99.90;;;;;;5037438;28;20063;-47
2022/04/02 09:50:26;;;;;;;29.45;22.38;;;11.40;99.90;;;;;;5069400;28;20488;-48
2022/04/02 09:52:57;;;;;;;34.58;24.90;;;11.50;99.90;;;;;;5054768;28;20040;-48
2022/04/02 09:55:27;;;;;;;27.45;21.73;;;11.60;99.90;;;;;;5054948;28;20033;-48
2022/04/02 09:58:05;;;;;;;31.67;22.30;;;11.80;99.90;;;;;;5054848;28;20047;-46
2022/04/02 10:00:41;;;;;;;30.83;23.10;;;11.60;99.90;;;;;;5054760;28;20116;-47
2022/04/02 10:03:13;;;;;;;30.85;23.70;;;12.00;99.90;;;;;;5054933;28;20032;-47
2022/04/02 10:06:13;;;;;;;29.30;23.15;;;12.00;99.90;;;;;;5054718;28;20039;-47
2022/04/02 10:08:52;;;;;;;30.27;24.27;;;12.30;99.90;;;;;;5054690;28;20068;-47
2022/04/02 10:11:24;;;;;;;30.70;23.73;;;12.30;99.90;;;;;;5052352;28;20056;-48
2022/04/02 10:13:52;;;;;;;29.50;24.33;;;12.00;99.90;;;;;;5054418;28;20028;-50
2022/04/02 10:16:22;;;;;;;33.35;23.60;;;12.20;99.90;;;;;;5054748;28;20043;-49
2022/04/02 10:18:56;;;;;;;31.88;24.08;;;12.00;99.90;;;;;;5054371;28;20068;-49
2022/04/02 10:21:22;;;;;;;27.08;19.25;;;11.90;99.90;;;;;;5053178;28;20139;-49
2022/04/02 10:23:53;;;;;;;25.45;17.52;;;11.70;99.90;;;;;;5054132;28;20040;-51
2022/04/02 10:26:21;;;;;;;33.88;24.35;;;11.70;99.90;;;;;;5054369;28;20040;-51
2022/04/02 10:28:57;;;;;;;34.30;22.67;;;11.90;99.90;;;;;;5018403;28;20094;-50
2022/04/02 10:31:35;;;;;;;30.88;22.40;;;11.50;99.90;;;;;;5051732;28;20048;-50
2022/04/02 10:34:09;;;;;;;24.55;16.27;;;11.30;99.90;;;;;;5051239;28;20070;-51
2022/04/02 10:37:00;;;;;;;30.80;22.23;;;10.80;99.90;;;;;;5018106;28;20036;-50
2022/04/02 10:39:29;;;;;;;36.25;24.83;;;10.90;99.90;;;;;;5060796;28;20400;-50
2022/04/02 10:42:02;;;;;;;37.97;26.55;;;10.90;99.90;;;;;;5071175;28;20085;-50
2022/04/02 10:44:50;;;;;;;35.45;24.17;;;11.10;99.90;;;;;;5071204;28;20045;-49
2022/04/02 10:47:21;;;;;;;34.05;24.88;;;11.30;99.90;;;;;;5054458;28;20032;-52
2022/04/02 10:49:51;;;;;;;28.30;22.42;;;12.00;99.90;;;;;;5050529;28;20434;-52
2022/04/02 10:52:19;;;;;;;38.70;25.15;;;;;;;;;;5051305;28;20037;-49
2022/04/02 10:54:49;;;;;;;35.03;25.77;;;12.80;99.90;;;;;;5033752;28;20041;-48
2022/04/02 10:57:16;;;;;;;35.53;24.77;;;;;;;;;;5056966;28;20028;-48
2022/04/02 10:59:46;;;;;;;29.77;23.05;;;13.60;99.90;;;;;;5071127;28;20045;-49
2022/04/02 11:02:22;;;;;;;39.53;26.02;;;14.00;99.90;;;;;;5072185;28;20037;-49
2022/04/02 11:04:59;;;;;;;31.67;24.48;;;;;;;;;;5071313;28;20053;-50
2022/04/02 11:07:37;;;;;;;30.35;23.25;;;14.50;99.90;;;;;;5076713;28;20079;-50
2022/04/02 11:10:04;;;;;;;31.30;24.10;;;14.50;99.90;;;;;;5093130;28;20471;-49
2022/04/02 11:12:33;;;;;;;30.80;25.17;;;14.50;99.90;;;;;;5084233;28;20060;-48
2022/04/02 11:15:19;;;;;;;28.95;22.40;;;14.60;99.90;;;;;;5057505;28;20053;-50
2022/04/02 11:17:52;;;;;;;28.50;22.80;;;14.20;99.90;;;;;;5053179;28;20040;-48
2022/04/02 11:20:26;;;;;;;29.80;21.30;;;14.50;99.90;;;;;;5053618;28;20029;-48
2022/04/02 11:22:52;;;;;;;28.30;20.63;;;14.90;99.90;;;;;;5052940;28;20061;-48
2022/04/02 11:25:32;;;;;;;24.58;19.35;;;;;;;;;;5050815;28;20499;-48
2022/04/02 11:28:16;;;;;;;26.95;22.08;;;16.40;99.90;;;;;;5053036;28;20021;-49
2022/04/02 11:30:47;;;;;;;24.40;18.67;;;17.30;99.90;;;;;;5055284;28;20029;-49
2022/04/02 11:33:18;;;;;;;22.45;17.45;;;17.00;99.90;;;;;;5070585;28;20033;-49
2022/04/02 11:35:45;;;;;;;24.88;20.50;;;16.50;99.90;;;;;;5074077;28;20461;-48
2022/04/02 11:38:23;;;;;;;27.85;21.98;;;17.00;99.90;;;;;;5073987;28;20368;-48
2022/04/02 11:41:01;;;;;;;29.30;22.65;;;16.60;99.90;;;;;;5074211;28;20032;-47
2022/04/02 11:43:36;;;;;;;38.00;25.35;;;16.70;99.90;;;;;;5073394;28;20453;-49
2022/04/02 11:46:11;;;;;;;36.97;28.08;;;15.70;99.90;;;;;;5064083;28;20389;-49
2022/04/02 11:48:51;;;;;;;39.85;27.50;;;15.20;99.90;;;;;;5061809;28;20075;-49
2022/04/02 11:51:21;;;;;;;27.58;21.15;;;14.90;99.90;;;;;;5056168;28;20040;-48
2022/04/02 11:53:47;;;;;;;30.85;21.08;;;;;;;;;;5054198;28;20515;-48
2022/04/02 11:56:37;;;;;;;28.85;22.15;;;12.30;99.90;;;;;;5053657;28;20029;-48
2022/04/02 11:59:08;;;;;;;18.65;13.38;;;11.30;99.90;;;;;;5052707;28;20037;-50
2022/04/02 12:01:49;;;;;;;10.57;9.02;;;10.20;99.90;;;;;;5052940;28;20430;-50
2022/04/02 12:04:19;;;;;;;10.27;6.28;;;9.60;99.90;;;;;;5053893;28;20461;-49
2022/04/02 12:06:47;;;;;;;8.13;5.97;;;;;;;;;;5053592;28;20037;-53
2022/04/02 12:09:48;;;;;;;7.03;5.38;;;8.80;99.90;;;;;;5053504;28;20449;-48
2022/04/02 12:12:23;;;;;;;2.67;1.97;;;8.20;99.90;;;;;;5053112;28;20025;-50
2022/04/02 12:14:50;;;;;;;4.72;3.10;;;;;;;;;;5068313;28;20242;-49
2022/04/02 12:17:15;;;;;;;4.57;2.17;;;7.90;99.90;;;;;;5073133;28;20029;-57
2022/04/02 12:19:55;;;;;;;3.60;2.10;;;7.70;99.90;;;;;;5077056;28;20088;-46
2022/04/02 12:22:31;;;;;;;5.50;2.50;;;7.80;99.90;;;;;;5074190;28;20041;-52
2022/04/02 12:25:04;;;;;;;2.15;1.65;;;7.90;99.90;;;;;;5076930;28;20013;-48
2022/04/02 12:27:36;;;;;;;3.72;2.13;;;7.90;99.90;;;;;;5075933;28;20099;-47
2022/04/02 12:30:08;;;;;;;2.47;1.65;;;8.30;99.90;;;;;;5068136;28;20115;-52
2022/04/02 12:32:43;;;;;;;2.65;1.98;;;8.30;99.90;;;;;;5037284;28;20082;-57
2022/04/02 12:35:13;;;;;;;3.13;2.05;;;8.30;99.90;;;;;;5068485;28;20044;-52
2022/04/02 12:37:49;;;;;;;2.25;1.83;;;8.50;99.90;;;;;;5037242;28;20028;-50
2022/04/02 12:40:21;;;;;;;2.75;1.58;;;8.70;99.90;;;;;;5070573;28;20040;-50
2022/04/02 12:43:06;;;;;;;3.08;2.25;;;8.50;99.90;;;;;;5069509;28;20029;-51
2022/04/02 12:45:34;;;;;;;3.53;2.50;;;8.50;99.90;;;;;;5070264;28;20036;-48
2022/04/02 12:48:11;;;;;;;3.08;2.33;;;8.70;99.90;;;;;;5038083;28;20476;-47
2022/04/02 12:50:58;;;;;;;3.05;2.15;;;8.80;99.90;;;;;;5061919;28;20041;-63
2022/04/02 12:53:31;;;;;;;2.42;1.90;;;8.80;99.90;;;;;;5048030;28;20036;-47